BLI - Bellingham Intl

Pirep is a free, collaborative database of all public and private airports located within the United States. All pilots are welcome to contribute, edit, and improve any airport they have local knowledge about, no registration required.
Uploaded photos will be licensed under a CC BY-SA 4.0 license. Please only upload photos you have the rights to use.
Tags
Public
Car Rental
Webcam
Flying Clubs
Events
METAR / TAF
Edit Tags
Food
Camping
Lodging
Bicycles
Swimming
Golfing
Fishing
Hot Springs
Museum
Airpark
Upcoming Events
  • WPA North Sound Chapter Monthly Meeting

    Thu, May 9 2024 7:00pm – 9:00pm
    Repeats every month on the second Thursday

    The WPA North Sound Chapter meets on the second Thursday of each month at the KBLI AARF building which is located at 2005 W. Bakerview Rd, Bellingham, WA 98226. See their website for more details.
*
*
*

Where exactly on/near the airport is this event taking place?

Is there a webpage with more information for this event?

Who should be contacted for more information?

What is this event all about?

Repeat every
Description
Last updated: 2023-09-29 22:39:10 PDT
Transient Parking
Last updated: 2023-09-29 22:39:10 PDT
Fuel Location
Landing & Tie-down Fees
Crew Car Availability
Flying Clubs
Last updated: 2023-11-13 21:33:33 PST
WiFi Access
Airport Statistics
Location: Bellingham, WA
Elevation: 171ft
Sectional: Seattle
Activation date: Nov 1938
Fuel: 100LL, A (prices)
Runway 16/34: 6,700ft
Access: Open to the public
Current Weather — VFR
  • Weather data is strictly informational and not for flight planning purposes.
  • METAR
    2024-04-22 04:53:00 PDT
    Ceiling Wind Temperature Dewpoint Weather Visbility
    Sky clear 170° @ 3kt 39°F 37°F N/A 10SM
    Clouds: Few @ 1,700ft
    Raw: KBLI 221153Z AUTO 17003KT 10SM FEW017 04/03 A3027 RMK AO2 SLP258 T00390028 10067 20017 58007
  • TAF
    2024-04-22 05:00:00 PDT – 2024-04-22 08:00:00 PDT
    Ceiling Wind Weather Visbility
    Sky clear Calm N/A 6SM
    Clouds: Few @ 5,000ft
    Raw: KBLI 221127Z 2212/2312 00000KT P6SM FEW050 FM221500 02004KT P6SM FEW200 FM222000 33008KT P6SM FEW200 FM230300 VRB03KT P6SM FEW200
  • TAF
    2024-04-22 08:00:00 PDT – 2024-04-22 13:00:00 PDT
    Ceiling Wind Weather Visbility
    Sky clear 20° @ 4kt N/A 6SM
    Clouds: Few @ 20,000ft
    Raw: KBLI 221127Z 2212/2312 00000KT P6SM FEW050 FM221500 02004KT P6SM FEW200 FM222000 33008KT P6SM FEW200 FM230300 VRB03KT P6SM FEW200
  • TAF
    2024-04-22 13:00:00 PDT – 2024-04-22 20:00:00 PDT
    Ceiling Wind Weather Visbility
    Sky clear 330° @ 8kt N/A 6SM
    Clouds: Few @ 20,000ft
    Raw: KBLI 221127Z 2212/2312 00000KT P6SM FEW050 FM221500 02004KT P6SM FEW200 FM222000 33008KT P6SM FEW200 FM230300 VRB03KT P6SM FEW200
  • TAF
    2024-04-22 20:00:00 PDT – 2024-04-23 05:00:00 PDT
    Ceiling Wind Weather Visbility
    Sky clear Variable N/A 6SM
    Clouds: Few @ 20,000ft
    Raw: KBLI 221127Z 2212/2312 00000KT P6SM FEW050 FM221500 02004KT P6SM FEW200 FM222000 33008KT P6SM FEW200 FM230300 VRB03KT P6SM FEW200
Click/tap to add an annotation marker to the map
Airport Webcam
Direct links to live image URLs will be displayed inline on this page. URLs to separate webpages will be linked to.
URL:
Direct links to live image URLs will be displayed inline on this page. URLs to separate webpages will be linked to.
URL:
Remarks
  • Estabd prior to 1959.
  • Ppr for unsked acr opns with more than 30 pax seats ctc ops at 360-739-1944.
  • Attended continuously. birds and coyotes on and invof arpt movement areas.
  • Twy a btn twy e and twy f clsd to acft wingspan more than 118ft. portions of twy a at twy g and twy j not visible fm atct.
  • Noise abatement proc in efct ctc ops at 360-739-1944.
Comments
Leave a comment What was your experience like at this airport?